Time;durP1;ratioP1;P1;durP2;ratioP2;P2;SDS_P1;SDS_P2;PMS_P1;PMS_P2;Temp;Humidity;BMP_temperature;BMP_pressure;BME280_temperature;BME280_humidity;BME280_pressure;Samples;Min_cycle;Max_cycle;Signal;HPM_P1;HPM_P2
2023/08/25 00:01:57;;;;;;;5.53;3.77;;;24.90;93.60;;;;;;5011335;28;20431;-83
2023/08/25 00:04:23;;;;;;;4.20;3.67;;;24.90;93.70;;;;;;5029432;28;20923;-85
2023/08/25 00:06:49;;;;;;;3.90;3.43;;;24.90;93.70;;;;;;5031771;28;20450;-84
2023/08/25 00:09:15;;;;;;;3.80;3.50;;;24.90;93.80;;;;;;5015457;28;20194;-82
2023/08/25 00:11:43;;;;;;;4.57;3.80;;;24.90;93.80;;;;;;5032534;28;20976;-83
2023/08/25 00:14:11;;;;;;;5.40;3.47;;;24.90;93.70;;;;;;5026487;28;20428;-84
2023/08/25 00:16:39;;;;;;;4.10;3.77;;;24.80;93.70;;;;;;5002633;28;20526;-84
2023/08/25 00:19:17;;;;;;;4.10;3.70;;;24.80;93.70;;;;;;5012648;28;20416;-84
2023/08/25 00:21:46;;;;;;;4.30;3.90;;;24.90;93.70;;;;;;5012973;28;20177;-84
2023/08/25 00:24:15;;;;;;;4.63;4.23;;;24.80;93.70;;;;;;4979177;28;20440;-83
2023/08/25 00:26:43;;;;;;;4.20;3.40;;;24.80;93.70;;;;;;4993845;28;20518;-84
2023/08/25 00:29:09;;;;;;;6.33;3.57;;;24.80;93.80;;;;;;5031588;28;20982;-85
2023/08/25 00:31:41;;;;;;;5.33;3.73;;;24.80;93.80;;;;;;5012980;28;20427;-84
2023/08/25 00:34:07;;;;;;;4.30;3.90;;;24.80;93.80;;;;;;5000611;28;20427;-84
2023/08/25 00:36:33;;;;;;;4.70;4.30;;;24.80;93.80;;;;;;4985876;28;20463;-85
2023/08/25 00:38:59;;;;;;;4.93;4.53;;;24.70;93.70;;;;;;4979068;28;20432;-83
2023/08/25 00:41:28;;;;;;;4.30;3.90;;;24.70;93.70;;;;;;5026298;28;20374;-84
2023/08/25 00:43:53;;;;;;;4.27;3.90;;;24.70;93.70;;;;;;5032854;28;20412;-84
2023/08/25 00:46:21;;;;;;;4.57;4.20;;;24.80;93.80;;;;;;5015281;28;20509;-84
2023/08/25 00:48:50;;;;;;;5.10;4.50;;;24.70;93.80;;;;;;5033786;28;20485;-84
2023/08/25 00:51:19;;;;;;;5.47;4.60;;;24.70;93.80;;;;;;5018564;28;20847;-84
2023/08/25 00:53:46;;;;;;;4.93;4.43;;;24.70;93.80;;;;;;5014542;28;20455;-82
2023/08/25 00:56:18;;;;;;;5.47;4.40;;;24.70;93.80;;;;;;5013978;28;20466;-84
2023/08/25 00:58:47;;;;;;;5.63;4.23;;;24.70;93.70;;;;;;4998873;28;20415;-84
2023/08/25 01:01:13;;;;;;;5.00;4.10;;;24.70;93.70;;;;;;4998207;28;20443;-83
2023/08/25 01:03:42;;;;;;;5.83;4.17;;;24.70;93.70;;;;;;5032537;28;20419;-84
2023/08/25 01:06:08;;;;;;;4.73;4.03;;;24.70;93.70;;;;;;4990084;28;20571;-83
2023/08/25 01:08:42;;;;;;;4.83;4.03;;;24.70;93.70;;;;;;4991957;28;20546;-83
2023/08/25 01:11:14;;;;;;;5.00;4.40;;;24.60;93.70;;;;;;5030895;28;20419;-84
2023/08/25 01:14:07;;;;;;;4.70;4.20;;;24.60;93.60;;;;;;5014632;28;20414;-85
2023/08/25 01:16:37;;;;;;;5.80;3.80;;;24.60;93.60;;;;;;4986337;28;20445;-82
2023/08/25 01:19:25;;;;;;;5.33;4.83;;;24.60;93.60;;;;;;5011074;28;20499;-84
2023/08/25 01:21:58;;;;;;;5.27;4.50;;;24.60;93.60;;;;;;4996103;28;20766;-84
2023/08/25 01:24:28;;;;;;;4.70;4.30;;;24.60;93.50;;;;;;5012156;28;20436;-83
2023/08/25 01:26:58;;;;;;;4.30;3.90;;;24.60;93.50;;;;;;5012128;28;20438;-84
2023/08/25 01:29:26;;;;;;;4.67;4.13;;;24.60;93.50;;;;;;5030529;28;20459;-84
2023/08/25 01:31:52;;;;;;;4.40;4.00;;;24.50;93.50;;;;;;5031300;28;20436;-84
2023/08/25 01:34:20;;;;;;;5.50;4.30;;;24.60;93.50;;;;;;4997156;28;20474;-84
2023/08/25 01:36:57;;;;;;;4.80;4.30;;;24.50;93.40;;;;;;4997900;28;20180;-84
2023/08/25 01:39:25;;;;;;;4.90;4.30;;;24.50;93.40;;;;;;5031776;28;20927;-83
2023/08/25 01:42:02;;;;;;;4.20;3.80;;;24.50;93.40;;;;;;5030973;28;21329;-84
2023/08/25 01:44:29;;;;;;;4.63;4.23;;;24.50;93.40;;;;;;5014189;28;20469;-83
2023/08/25 01:47:01;;;;;;;5.77;4.40;;;24.50;93.40;;;;;;4981045;28;21174;-83
2023/08/25 01:49:34;;;;;;;4.60;4.20;;;24.50;93.50;;;;;;5030738;28;20405;-82
2023/08/25 01:52:03;;;;;;;4.23;3.83;;;24.50;93.50;;;;;;4995332;28;20437;-84
2023/08/25 01:54:31;;;;;;;4.33;4.00;;;24.50;93.50;;;;;;4984200;28;20447;-83
2023/08/25 01:56:57;;;;;;;4.27;3.90;;;24.50;93.40;;;;;;4997236;28;20904;-83
2023/08/25 01:59:23;;;;;;;4.70;4.30;;;24.50;93.40;;;;;;5016425;28;20456;-84
2023/08/25 02:01:49;;;;;;;4.57;4.20;;;24.50;93.40;;;;;;4994353;28;20569;-84
2023/08/25 02:04:17;;;;;;;4.63;4.23;;;24.50;93.50;;;;;;4992961;28;20482;-81
2023/08/25 02:06:45;;;;;;;4.93;4.53;;;24.40;93.40;;;;;;4993911;28;20512;-84
2023/08/25 02:09:17;;;;;;;4.37;4.00;;;24.50;93.50;;;;;;5010423;28;20941;-84
2023/08/25 02:11:48;;;;;;;4.57;4.10;;;24.40;93.40;;;;;;5009767;28;20447;-83
2023/08/25 02:14:24;;;;;;;4.50;4.20;;;24.40;93.40;;;;;;5024942;28;20429;-83
2023/08/25 02:16:52;;;;;;;4.50;3.87;;;24.40;93.40;;;;;;4993548;28;20476;-84
2023/08/25 02:19:18;;;;;;;4.20;3.90;;;24.40;93.40;;;;;;4993563;28;20405;-83
2023/08/25 02:21:50;;;;;;;4.20;3.90;;;24.40;93.40;;;;;;4977622;28;20554;-83
2023/08/25 02:24:16;;;;;;;4.20;3.80;;;24.40;93.40;;;;;;5009640;28;20440;-84
2023/08/25 02:26:44;;;;;;;4.73;4.43;;;24.40;93.80;;;;;;4993480;28;20413;-83
2023/08/25 02:29:10;;;;;;;4.63;4.07;;;24.40;93.40;;;;;;5010102;28;20237;-83
2023/08/25 02:31:40;;;;;;;4.40;4.10;;;24.40;93.40;;;;;;5010036;28;20423;-84
2023/08/25 02:34:06;;;;;;;5.07;3.80;;;24.40;93.50;;;;;;4977758;28;20558;-81
2023/08/25 02:36:34;;;;;;;4.50;4.10;;;24.40;93.50;;;;;;5010269;28;20479;-84
2023/08/25 02:39:00;;;;;;;3.90;3.70;;;24.40;93.50;;;;;;4993184;28;20432;-83
2023/08/25 02:41:26;;;;;;;4.80;3.73;;;24.40;93.50;;;;;;4977371;28;20472;-83
2023/08/25 02:43:54;;;;;;;4.00;3.70;;;24.30;93.50;;;;;;5011750;28;20268;-83
2023/08/25 02:46:22;;;;;;;3.80;3.50;;;24.30;93.40;;;;;;4996584;28;20566;-84
2023/08/25 02:48:50;;;;;;;4.47;4.10;;;24.30;93.50;;;;;;5009378;28;20494;-81
2023/08/25 02:51:16;;;;;;;4.67;3.50;;;24.30;93.40;;;;;;5009453;28;20420;-82
2023/08/25 02:53:42;;;;;;;4.83;4.40;;;24.30;93.50;;;;;;4993094;28;20501;-84
2023/08/25 02:56:10;;;;;;;4.33;3.93;;;24.20;93.50;;;;;;4993307;28;20768;-83
2023/08/25 02:58:39;;;;;;;4.43;3.50;;;24.20;93.50;;;;;;4976983;28;20216;-83
2023/08/25 03:01:12;;;;;;;4.17;3.77;;;24.30;93.60;;;;;;5016741;28;20453;-84
2023/08/25 03:03:38;;;;;;;4.60;4.00;;;24.30;93.60;;;;;;4996565;28;20475;-83
2023/08/25 03:06:05;;;;;;;4.00;3.70;;;24.20;93.50;;;;;;5010108;28;20439;-84
2023/08/25 03:08:32;;;;;;;4.20;3.90;;;24.20;93.50;;;;;;5003694;28;20790;-84
2023/08/25 03:11:03;;;;;;;3.97;3.67;;;24.20;93.60;;;;;;4993510;28;20468;-83
2023/08/25 03:13:40;;;;;;;4.43;4.13;;;24.20;93.50;;;;;;5009604;28;20400;-83
2023/08/25 03:16:09;;;;;;;4.50;4.13;;;24.20;93.60;;;;;;5008747;28;20436;-83
2023/08/25 03:18:37;;;;;;;4.57;4.27;;;24.20;93.60;;;;;;4992908;28;20451;-84
2023/08/25 03:21:05;;;;;;;3.90;3.63;;;24.20;93.60;;;;;;4999881;28;20443;-84
2023/08/25 03:23:31;;;;;;;4.30;3.97;;;24.20;93.60;;;;;;4996220;28;20524;-84
2023/08/25 03:25:58;;;;;;;4.10;3.80;;;24.20;93.60;;;;;;4995762;28;20530;-83
2023/08/25 03:28:26;;;;;;;4.30;4.00;;;24.10;93.60;;;;;;5012451;28;20570;-83
2023/08/25 03:30:52;;;;;;;4.70;4.23;;;24.10;93.60;;;;;;4991610;28;20519;-83
2023/08/25 03:33:22;;;;;;;4.60;4.20;;;24.20;93.70;;;;;;5005479;28;20188;-85
2023/08/25 03:35:51;;;;;;;4.33;3.90;;;24.10;93.60;;;;;;5011734;28;20501;-84
2023/08/25 03:38:21;;;;;;;5.03;4.67;;;24.10;93.70;;;;;;5008127;28;20840;-83
2023/08/25 03:40:47;;;;;;;4.97;4.50;;;24.10;93.60;;;;;;4979738;28;20451;-83
2023/08/25 03:43:12;;;;;;;4.43;3.93;;;24.10;93.70;;;;;;4996732;28;20478;-83
2023/08/25 03:45:38;;;;;;;4.20;3.80;;;24.10;93.70;;;;;;4993858;28;20440;-83
2023/08/25 03:48:04;;;;;;;4.70;3.80;;;24.10;93.70;;;;;;5012397;28;20724;-83
2023/08/25 03:50:31;;;;;;;4.33;4.00;;;24.00;93.70;;;;;;5000416;28;20274;-83
2023/08/25 03:53:02;;;;;;;4.83;4.43;;;24.10;93.70;;;;;;5016468;28;20923;-82
2023/08/25 03:55:30;;;;;;;5.13;4.73;;;24.10;93.70;;;;;;5033712;28;20439;-83
2023/08/25 03:57:56;;;;;;;4.70;4.20;;;24.10;93.80;;;;;;5015846;28;20466;-84
2023/08/25 04:00:22;;;;;;;4.10;3.80;;;24.00;93.70;;;;;;5013347;28;20271;-84
2023/08/25 04:02:48;;;;;;;4.40;4.10;;;24.00;93.70;;;;;;4996018;28;20486;-83
2023/08/25 04:05:18;;;;;;;4.20;3.90;;;24.00;93.80;;;;;;5004038;28;20189;-83
2023/08/25 04:07:48;;;;;;;4.67;4.27;;;24.00;93.80;;;;;;5016078;28;20545;-83
2023/08/25 04:10:15;;;;;;;4.60;4.30;;;24.00;93.80;;;;;;5031596;28;20443;-83
2023/08/25 04:12:43;;;;;;;4.57;4.27;;;24.00;93.80;;;;;;5012822;28;20408;-82
2023/08/25 04:15:09;;;;;;;6.53;5.00;;;24.00;93.80;;;;;;5012572;28;20436;-84
2023/08/25 04:17:36;;;;;;;5.33;4.90;;;24.00;93.80;;;;;;4996295;28;20441;-83
2023/08/25 04:20:06;;;;;;;4.80;4.50;;;24.00;93.80;;;;;;5009672;28;20423;-83
2023/08/25 04:22:32;;;;;;;4.90;4.50;;;23.90;93.80;;;;;;5031699;28;20505;-82
2023/08/25 04:24:59;;;;;;;4.67;4.17;;;23.90;93.80;;;;;;5031936;28;20954;-84
2023/08/25 04:27:27;;;;;;;4.80;4.40;;;23.90;93.80;;;;;;5014838;28;20463;-84
2023/08/25 04:29:53;;;;;;;4.10;3.90;;;23.90;93.80;;;;;;5015483;28;20423;-83
2023/08/25 04:32:22;;;;;;;4.43;4.13;;;23.90;93.80;;;;;;4981421;28;20439;-83
2023/08/25 04:34:48;;;;;;;4.67;4.27;;;23.90;93.80;;;;;;4998663;28;20456;-83
2023/08/25 04:37:17;;;;;;;3.80;3.50;;;23.90;93.80;;;;;;5014905;28;20437;-83
2023/08/25 04:39:45;;;;;;;3.93;3.63;;;23.90;93.80;;;;;;5030820;28;20189;-83
2023/08/25 04:42:14;;;;;;;4.70;4.30;;;23.90;93.80;;;;;;5003821;28;20461;-84
2023/08/25 04:44:42;;;;;;;4.93;4.50;;;23.90;93.80;;;;;;4995357;28;20553;-82
2023/08/25 04:47:10;;;;;;;4.30;3.90;;;23.80;93.70;;;;;;4995620;28;20772;-83
2023/08/25 04:49:38;;;;;;;3.90;3.60;;;23.80;93.80;;;;;;4978853;28;20535;-84
2023/08/25 04:52:04;;;;;;;4.33;3.93;;;23.80;93.80;;;;;;4978260;28;20476;-82
2023/08/25 04:54:35;;;;;;;4.50;4.10;;;23.80;93.80;;;;;;5012752;28;20807;-83
2023/08/25 04:57:02;;;;;;;5.67;4.07;;;23.80;93.90;;;;;;4996934;28;20514;-83
2023/08/25 04:59:28;;;;;;;4.47;4.10;;;23.80;93.90;;;;;;4997906;28;20425;-83
2023/08/25 05:01:54;;;;;;;4.07;3.77;;;23.80;93.90;;;;;;4998879;28;20458;-82
2023/08/25 05:04:21;;;;;;;5.33;4.20;;;23.80;93.90;;;;;;5001719;28;20289;-83
2023/08/25 05:06:46;;;;;;;4.03;3.73;;;23.80;93.80;;;;;;4985036;28;20466;-83
2023/08/25 05:09:13;;;;;;;4.60;4.20;;;23.80;93.90;;;;;;5006911;28;20463;-83
2023/08/25 05:11:39;;;;;;;4.67;4.20;;;23.80;93.90;;;;;;5011782;28;20436;-83
2023/08/25 05:14:10;;;;;;;3.97;3.67;;;23.80;93.90;;;;;;4983514;28;20510;-84
2023/08/25 05:16:40;;;;;;;3.90;3.50;;;23.80;93.90;;;;;;4991940;28;20955;-82
2023/08/25 05:19:15;;;;;;;3.97;3.67;;;23.80;93.90;;;;;;4991572;28;20500;-83
2023/08/25 05:21:43;;;;;;;3.97;3.67;;;23.70;93.90;;;;;;4991162;28;20464;-83
2023/08/25 05:24:19;;;;;;;4.17;3.77;;;23.70;93.90;;;;;;4974751;28;20417;-84
2023/08/25 05:26:52;;;;;;;3.97;3.70;;;23.70;93.90;;;;;;5027392;23;20497;-73
2023/08/25 05:29:28;;;;;;;4.50;4.10;;;23.70;93.90;;;;;;5021634;28;20437;-74
2023/08/25 05:31:56;;;;;;;5.20;4.10;;;23.70;93.90;;;;;;5027987;28;20464;-75
2023/08/25 05:34:37;;;;;;;6.30;4.40;;;23.70;94.00;;;;;;5005585;28;21200;-74
2023/08/25 05:37:06;;;;;;;3.73;3.53;;;23.70;94.00;;;;;;4996255;28;21350;-75
2023/08/25 05:39:34;;;;;;;4.63;3.83;;;23.70;94.00;;;;;;5009340;28;20423;-75
2023/08/25 05:42:00;;;;;;;3.77;3.47;;;23.70;94.00;;;;;;4991085;28;20431;-75
2023/08/25 05:44:26;;;;;;;4.43;4.03;;;23.70;94.00;;;;;;5002083;28;20540;-74
2023/08/25 05:46:53;;;;;;;4.40;4.00;;;23.70;94.00;;;;;;4997215;28;20530;-73
2023/08/25 05:49:19;;;;;;;5.50;4.33;;;23.60;94.00;;;;;;5012042;28;20486;-73
2023/08/25 05:51:47;;;;;;;4.30;3.60;;;23.60;94.00;;;;;;5020110;28;20430;-73
2023/08/25 05:54:13;;;;;;;4.30;4.00;;;23.70;94.00;;;;;;5016784;28;20458;-73
2023/08/25 05:56:42;;;;;;;3.80;3.50;;;23.60;94.00;;;;;;4989823;28;20427;-72
2023/08/25 05:59:10;;;;;;;4.50;4.10;;;23.60;94.00;;;;;;4990224;28;20490;-73
2023/08/25 06:01:36;;;;;;;4.40;3.80;;;23.60;93.90;;;;;;4989555;28;20948;-73
2023/08/25 06:04:03;;;;;;;4.07;3.73;;;23.60;94.40;;;;;;5001982;28;20463;-73
2023/08/25 06:06:31;;;;;;;4.23;3.70;;;23.60;94.20;;;;;;5014509;28;20188;-73
2023/08/25 06:08:57;;;;;;;4.73;3.50;;;23.60;94.20;;;;;;5026119;28;20497;-72
2023/08/25 06:11:23;;;;;;;4.10;3.80;;;23.60;94.20;;;;;;5008044;28;20227;-73
2023/08/25 06:13:49;;;;;;;4.03;3.73;;;23.60;94.20;;;;;;5009882;28;20484;-72
2023/08/25 06:16:15;;;;;;;5.20;3.90;;;23.60;94.30;;;;;;5021753;28;20440;-73
2023/08/25 06:18:42;;;;;;;4.97;4.57;;;23.60;94.20;;;;;;5006026;28;20183;-72
2023/08/25 06:21:09;;;;;;;6.27;3.73;;;23.60;94.30;;;;;;4989458;28;20422;-73
2023/08/25 06:23:35;;;;;;;5.60;5.10;;;23.50;94.30;;;;;;4989108;28;20462;-73
2023/08/25 06:26:01;;;;;;;5.23;4.07;;;23.60;94.30;;;;;;5004684;28;21254;-74
2023/08/25 06:28:27;;;;;;;3.90;3.60;;;23.50;94.30;;;;;;5005568;28;20492;-73
2023/08/25 06:30:53;;;;;;;4.60;4.20;;;23.60;94.50;;;;;;5025167;28;20531;-72
2023/08/25 06:33:19;;;;;;;4.77;4.00;;;23.50;94.50;;;;;;5005498;28;21230;-74
2023/08/25 06:35:48;;;;;;;5.33;4.80;;;23.50;94.60;;;;;;4985182;28;20496;-73
2023/08/25 06:38:14;;;;;;;3.87;3.50;;;23.50;94.70;;;;;;4998504;28;20415;-72
2023/08/25 06:40:40;;;;;;;4.00;3.70;;;23.50;94.60;;;;;;5006544;28;20458;-72
2023/08/25 06:43:11;;;;;;;4.00;3.70;;;23.50;94.50;;;;;;4986482;28;20463;-72
2023/08/25 06:45:38;;;;;;;4.27;3.97;;;23.50;94.50;;;;;;5036114;28;20913;-72
2023/08/25 06:48:05;;;;;;;4.10;3.80;;;23.50;94.50;;;;;;5002719;28;20561;-73
2023/08/25 06:50:34;;;;;;;6.20;4.03;;;23.50;94.50;;;;;;5005724;28;20424;-72
2023/08/25 06:53:04;;;;;;;4.40;4.00;;;23.50;94.50;;;;;;5022805;28;21171;-73
2023/08/25 06:55:36;;;;;;;4.40;3.93;;;23.50;94.50;;;;;;5005461;28;20461;-72
2023/08/25 06:58:02;;;;;;;4.83;4.33;;;23.50;94.50;;;;;;4988319;28;20447;-73
2023/08/25 07:00:29;;;;;;;4.20;3.77;;;23.50;94.40;;;;;;4989347;28;20431;-73
2023/08/25 07:02:55;;;;;;;4.43;4.03;;;23.50;94.50;;;;;;5022671;28;20450;-72
2023/08/25 07:05:24;;;;;;;3.73;3.43;;;23.50;94.50;;;;;;5022288;28;20994;-72
2023/08/25 07:07:52;;;;;;;5.23;4.13;;;23.50;94.60;;;;;;5022485;28;20940;-72
2023/08/25 07:10:21;;;;;;;4.83;4.20;;;23.50;94.60;;;;;;5023141;28;20445;-72
2023/08/25 07:12:47;;;;;;;5.20;4.80;;;23.50;94.70;;;;;;5023215;28;21163;-73
2023/08/25 07:15:13;;;;;;;4.03;3.73;;;23.50;94.70;;;;;;5021893;28;21081;-72
2023/08/25 07:17:41;;;;;;;4.80;4.40;;;23.50;94.70;;;;;;4989394;28;20466;-73
2023/08/25 07:20:10;;;;;;;4.70;4.40;;;23.50;94.70;;;;;;5023027;28;20517;-73
2023/08/25 07:22:40;;;;;;;4.67;4.37;;;23.50;94.70;;;;;;5022557;28;20435;-72
2023/08/25 07:25:06;;;;;;;6.30;4.23;;;23.50;94.70;;;;;;4989007;28;20471;-72
2023/08/25 07:27:32;;;;;;;5.60;4.20;;;23.50;94.70;;;;;;5006728;28;21242;-73
2023/08/25 07:30:04;;;;;;;4.60;4.10;;;23.50;94.80;;;;;;4989692;28;20432;-73
2023/08/25 07:32:30;;;;;;;4.77;4.37;;;23.50;94.80;;;;;;4999930;28;20447;-73
2023/08/25 07:34:57;;;;;;;4.77;4.27;;;23.50;94.80;;;;;;5022838;28;20450;-73
2023/08/25 07:37:25;;;;;;;4.77;4.37;;;23.50;94.80;;;;;;4989163;28;20428;-73
2023/08/25 07:39:54;;;;;;;5.07;4.40;;;23.50;94.80;;;;;;5013458;28;20473;-72
2023/08/25 07:42:23;;;;;;;4.23;3.83;;;23.50;94.80;;;;;;5023418;28;20473;-75
2023/08/25 07:44:49;;;;;;;4.93;4.47;;;23.50;94.80;;;;;;5023864;28;20491;-77
2023/08/25 07:47:15;;;;;;;5.70;4.53;;;23.50;94.90;;;;;;4988725;28;20463;-76
2023/08/25 07:49:44;;;;;;;5.03;4.63;;;23.50;95.00;;;;;;5023210;28;20464;-76
2023/08/25 07:52:10;;;;;;;7.03;4.60;;;23.50;95.00;;;;;;4974304;28;20440;-77
2023/08/25 07:54:37;;;;;;;6.43;5.03;;;23.50;95.00;;;;;;4990122;28;21127;-77
2023/08/25 07:57:04;;;;;;;5.47;4.90;;;23.50;95.00;;;;;;4988881;28;20423;-75
2023/08/25 07:59:29;;;;;;;4.47;4.03;;;23.50;95.00;;;;;;4989031;28;20441;-76
2023/08/25 08:01:56;;;;;;;5.57;4.57;;;23.40;95.00;;;;;;5007495;28;20565;-77
2023/08/25 08:04:26;;;;;;;5.07;4.67;;;23.50;95.00;;;;;;5006368;28;20192;-76
2023/08/25 08:06:55;;;;;;;5.13;4.67;;;23.40;95.10;;;;;;4985937;28;20440;-73
2023/08/25 08:09:21;;;;;;;5.73;4.80;;;23.50;95.30;;;;;;5030919;28;20462;-74
2023/08/25 08:11:47;;;;;;;6.13;4.50;;;23.50;95.40;;;;;;5003659;28;20492;-73
2023/08/25 08:14:13;;;;;;;5.03;4.53;;;23.40;95.30;;;;;;5003380;28;21212;-73
2023/08/25 08:16:39;;;;;;;4.67;4.20;;;23.40;95.30;;;;;;4987287;28;20427;-72
2023/08/25 08:19:05;;;;;;;5.07;4.67;;;23.40;95.30;;;;;;5003736;28;21194;-74
2023/08/25 08:21:31;;;;;;;5.27;4.80;;;23.40;95.40;;;;;;5003785;28;20313;-74
2023/08/25 08:23:57;;;;;;;8.90;4.90;;;23.40;95.50;;;;;;5021315;28;21092;-73
2023/08/25 08:26:23;;;;;;;5.77;5.20;;;23.40;95.50;;;;;;5004179;28;20538;-75
2023/08/25 08:28:49;;;;;;;5.23;4.80;;;23.40;95.90;;;;;;5025187;28;20477;-74
2023/08/25 08:31:18;;;;;;;4.60;4.20;;;23.40;95.60;;;;;;5007696;28;20435;-73
2023/08/25 08:33:47;;;;;;;6.80;4.90;;;23.40;95.60;;;;;;5007336;28;20408;-74
2023/08/25 08:36:16;;;;;;;6.13;5.53;;;23.40;95.60;;;;;;5007170;28;20829;-74
2023/08/25 08:38:42;;;;;;;6.13;5.27;;;23.40;95.60;;;;;;4991113;28;20427;-73
2023/08/25 08:41:10;;;;;;;6.43;4.47;;;23.40;95.80;;;;;;5007011;28;20458;-75
2023/08/25 08:43:41;;;;;;;5.20;4.70;;;23.40;95.80;;;;;;5008553;28;20470;-75
2023/08/25 08:46:08;;;;;;;6.23;4.93;;;23.40;95.80;;;;;;5027662;28;20420;-75
2023/08/25 08:48:35;;;;;;;5.80;5.30;;;23.40;95.90;;;;;;4977985;28;20534;-75
2023/08/25 08:51:02;;;;;;;5.40;4.90;;;23.40;95.90;;;;;;5009918;28;20439;-75
2023/08/25 08:53:29;;;;;;;5.47;4.97;;;23.40;96.00;;;;;;5009646;28;20954;-75
2023/08/25 08:55:59;;;;;;;5.90;5.30;;;23.40;96.00;;;;;;4993114;28;21188;-76
2023/08/25 08:58:25;;;;;;;5.90;5.40;;;23.40;96.10;;;;;;4991990;28;20538;-74
2023/08/25 09:00:52;;;;;;;5.33;4.90;;;23.40;96.10;;;;;;5008387;28;21250;-71
2023/08/25 09:03:21;;;;;;;5.30;4.90;;;23.40;96.10;;;;;;5008206;28;21163;-72
2023/08/25 09:05:52;;;;;;;5.60;5.10;;;23.30;96.20;;;;;;5008023;28;20549;-71
2023/08/25 09:08:22;;;;;;;5.10;4.60;;;23.40;96.30;;;;;;4991516;28;20554;-71
2023/08/25 09:10:48;;;;;;;5.90;4.80;;;23.40;96.30;;;;;;4991892;28;20457;-70
2023/08/25 09:13:17;;;;;;;6.80;5.20;;;23.40;96.30;;;;;;5026329;28;20575;-73
2023/08/25 09:15:49;;;;;;;6.00;5.40;;;23.40;96.20;;;;;;5009069;28;20574;-72
2023/08/25 09:18:15;;;;;;;6.50;5.50;;;23.30;96.20;;;;;;5008494;28;20826;-72
2023/08/25 09:20:41;;;;;;;4.47;4.17;;;23.30;96.20;;;;;;5008085;28;20431;-72
2023/08/25 09:23:08;;;;;;;5.80;4.93;;;23.30;96.20;;;;;;4999448;28;20488;-72
2023/08/25 09:25:39;;;;;;;5.33;4.83;;;23.30;96.20;;;;;;5031706;28;20557;-72
2023/08/25 09:28:05;;;;;;;5.40;4.90;;;23.30;96.20;;;;;;4991210;28;21301;-72
2023/08/25 09:30:38;;;;;;;4.90;4.37;;;23.30;96.20;;;;;;4975408;28;20835;-72
2023/08/25 09:33:15;;;;;;;5.83;5.23;;;23.30;96.20;;;;;;5007157;28;21014;-72
2023/08/25 09:35:44;;;;;;;6.10;4.83;;;23.30;96.20;;;;;;4991229;28;20454;-72
2023/08/25 09:38:28;;;;;;;4.63;4.23;;;23.30;96.20;;;;;;5007092;28;20980;-72
2023/08/25 09:40:54;;;;;;;5.53;5.03;;;23.30;96.30;;;;;;5007126;28;20920;-72
2023/08/25 09:43:33;;;;;;;6.37;5.67;;;23.30;96.40;;;;;;5006935;28;20419;-72
2023/08/25 09:46:08;;;;;;;5.00;4.57;;;23.30;96.30;;;;;;5036991;28;20314;-72
2023/08/25 09:48:35;;;;;;;6.40;4.87;;;23.30;96.40;;;;;;5014170;28;20986;-74
2023/08/25 09:51:06;;;;;;;5.80;4.60;;;23.30;96.30;;;;;;5007465;28;20506;-73
2023/08/25 09:53:33;;;;;;;6.00;5.40;;;23.30;96.40;;;;;;4990600;28;20451;-71
2023/08/25 09:56:06;;;;;;;5.07;4.60;;;23.30;96.50;;;;;;5006089;28;20424;-71
2023/08/25 09:58:35;;;;;;;8.33;5.07;;;23.30;96.50;;;;;;5005968;28;20436;-70
2023/08/25 10:01:01;;;;;;;5.13;4.70;;;23.30;96.40;;;;;;4973523;28;20416;-69
2023/08/25 10:03:28;;;;;;;6.30;5.17;;;23.30;96.50;;;;;;5005711;28;20426;-69
2023/08/25 10:06:00;;;;;;;5.30;4.80;;;23.30;96.50;;;;;;5005748;28;20456;-71
2023/08/25 10:08:27;;;;;;;5.20;4.70;;;23.30;96.50;;;;;;4989635;28;20454;-74
2023/08/25 10:10:57;;;;;;;5.37;4.47;;;23.30;96.50;;;;;;4991385;28;20407;-71
2023/08/25 10:13:26;;;;;;;6.00;4.90;;;23.30;96.40;;;;;;4993959;28;20447;-73
2023/08/25 10:15:53;;;;;;;8.93;4.73;;;23.30;96.60;;;;;;5003109;28;20474;-72
2023/08/25 10:18:22;;;;;;;5.73;5.23;;;23.30;96.70;;;;;;5029779;28;20434;-72
2023/08/25 10:20:51;;;;;;;8.53;5.57;;;23.30;96.70;;;;;;5015523;28;20490;-72
2023/08/25 10:23:21;;;;;;;5.73;5.23;;;23.30;96.70;;;;;;4973106;28;20447;-72
2023/08/25 10:28:37;;;;;;;4.50;4.10;;;23.20;96.70;;;;;;4959874;28;20497;-72
2023/08/25 10:31:04;;;;;;;9.37;5.70;;;23.20;96.80;;;;;;4955047;28;21033;-71
2023/08/25 10:33:51;;;;;;;7.10;4.60;;;23.30;96.90;;;;;;4963902;28;20837;-74
2023/08/25 10:36:20;;;;;;;5.70;4.73;;;23.20;96.80;;;;;;4928089;29;20506;-73
2023/08/25 10:39:10;;;;;;;5.33;4.73;;;23.20;96.90;;;;;;4927789;29;20832;-73
2023/08/25 10:41:43;;;;;;;6.23;4.27;;;23.20;96.90;;;;;;4923431;29;20559;-73
2023/08/25 10:44:21;;;;;;;5.90;4.60;;;23.20;96.90;;;;;;4939462;29;20446;-74
2023/08/25 10:46:48;;;;;;;5.90;4.70;;;23.20;96.90;;;;;;4925714;29;21086;-73
2023/08/25 10:49:15;;;;;;;5.50;5.00;;;23.20;96.90;;;;;;4939877;28;21246;-73
2023/08/25 10:51:41;;;;;;;5.30;4.80;;;23.20;97.00;;;;;;4910708;29;20439;-73
2023/08/25 10:54:18;;;;;;;7.00;4.70;;;23.20;97.10;;;;;;4910888;29;20443;-73
2023/08/25 10:56:44;;;;;;;5.80;4.70;;;23.20;97.10;;;;;;4943850;29;20430;-73
2023/08/25 10:59:14;;;;;;;8.50;4.77;;;23.20;97.10;;;;;;4922991;29;20564;-77
2023/08/25 11:01:42;;;;;;;6.17;4.67;;;23.20;97.20;;;;;;4923350;29;20636;-77
2023/08/25 11:04:25;;;;;;;5.70;4.60;;;23.20;97.20;;;;;;4945070;29;20967;-78
2023/08/25 11:06:57;;;;;;;5.77;4.77;;;23.20;97.10;;;;;;4914119;29;20463;-77
2023/08/25 11:09:38;;;;;;;5.20;4.70;;;23.20;97.20;;;;;;4912592;29;20459;-77
2023/08/25 11:12:08;;;;;;;4.33;3.93;;;23.20;97.20;;;;;;4914098;29;20434;-77
2023/08/25 11:14:39;;;;;;;9.17;4.60;;;23.20;97.20;;;;;;4931498;29;20439;-79
2023/08/25 11:17:07;;;;;;;5.63;4.30;;;23.20;97.20;;;;;;4920804;29;20443;-77
2023/08/25 11:19:37;;;;;;;5.43;4.93;;;23.20;97.50;;;;;;4930138;29;20439;-76
2023/08/25 11:22:05;;;;;;;7.40;4.40;;;23.20;97.20;;;;;;4919646;29;20447;-77
2023/08/25 11:24:32;;;;;;;4.93;4.33;;;23.20;97.20;;;;;;4920882;29;20513;-77
2023/08/25 11:27:09;;;;;;;5.00;4.50;;;23.20;97.30;;;;;;4934550;29;20482;-78
2023/08/25 11:29:39;;;;;;;5.20;4.33;;;23.20;97.30;;;;;;4920610;29;20458;-78
2023/08/25 11:32:15;;;;;;;4.50;4.10;;;23.10;97.20;;;;;;4920750;29;20490;-78
2023/08/25 11:34:53;;;;;;;4.77;4.27;;;23.10;97.20;;;;;;4936855;29;20458;-78
2023/08/25 11:37:21;;;;;;;5.13;4.53;;;23.10;97.20;;;;;;4923054;29;20442;-77
2023/08/25 11:39:52;;;;;;;4.47;4.07;;;23.20;97.20;;;;;;4938084;29;20423;-78
2023/08/25 11:42:23;;;;;;;4.67;3.83;;;23.10;97.20;;;;;;4954559;29;20426;-78
2023/08/25 11:44:53;;;;;;;6.43;4.70;;;23.20;97.20;;;;;;4919962;29;20434;-78
2023/08/25 11:47:21;;;;;;;5.57;4.83;;;23.20;97.30;;;;;;4936111;29;20455;-78
2023/08/25 11:49:50;;;;;;;5.10;4.70;;;23.20;97.30;;;;;;4936227;29;21157;-78
2023/08/25 11:52:17;;;;;;;5.43;4.90;;;23.10;97.20;;;;;;4954798;29;20442;-78
2023/08/25 11:54:46;;;;;;;4.97;4.47;;;23.20;97.30;;;;;;4953837;29;20454;-78
2023/08/25 11:57:12;;;;;;;4.00;3.70;;;23.20;97.20;;;;;;4905224;29;20483;-77
2023/08/25 11:59:45;;;;;;;4.13;3.77;;;23.20;97.30;;;;;;4937233;29;20925;-78
2023/08/25 12:02:21;;;;;;;4.70;4.30;;;23.10;97.30;;;;;;4952713;28;20613;-77
2023/08/25 12:04:57;;;;;;;5.20;4.47;;;23.10;97.30;;;;;;4943941;29;20460;-79
2023/08/25 12:07:28;;;;;;;5.60;4.00;;;23.10;97.30;;;;;;4934299;29;20656;-77
2023/08/25 12:09:55;;;;;;;4.53;4.07;;;23.10;97.30;;;;;;4919354;29;20822;-78
2023/08/25 12:12:22;;;;;;;4.50;4.20;;;23.10;97.30;;;;;;4936880;29;20441;-77
2023/08/25 12:14:54;;;;;;;4.20;3.40;;;23.10;97.40;;;;;;4920204;29;20489;-78
2023/08/25 12:17:24;;;;;;;4.23;3.93;;;23.10;97.30;;;;;;4920662;29;20447;-77
2023/08/25 12:19:51;;;;;;;4.47;4.07;;;23.10;97.30;;;;;;4936872;29;20418;-78
2023/08/25 12:22:19;;;;;;;4.53;4.23;;;23.10;97.30;;;;;;4921718;29;20522;-78
2023/08/25 12:24:46;;;;;;;4.93;4.53;;;23.20;97.20;;;;;;4917959;29;20557;-78
2023/08/25 12:27:15;;;;;;;4.40;3.90;;;23.10;97.20;;;;;;4919135;29;20968;-78
2023/08/25 12:29:44;;;;;;;3.93;3.63;;;23.20;97.20;;;;;;4931046;29;20461;-76
2023/08/25 12:32:10;;;;;;;3.83;3.43;;;23.10;97.30;;;;;;4914286;29;20435;-74
2023/08/25 12:34:36;;;;;;;4.50;3.60;;;23.20;97.30;;;;;;4947351;29;20468;-76
2023/08/25 12:37:05;;;;;;;4.33;3.73;;;23.20;97.70;;;;;;4946271;29;20915;-76
2023/08/25 12:39:33;;;;;;;6.97;3.83;;;23.10;97.50;;;;;;4926333;29;20446;-77
2023/08/25 12:41:59;;;;;;;4.73;3.63;;;23.20;97.40;;;;;;4924494;29;20458;-77
2023/08/25 12:44:30;;;;;;;4.10;3.80;;;23.10;97.50;;;;;;4913067;29;20465;-76
2023/08/25 12:46:56;;;;;;;4.03;3.70;;;23.10;97.30;;;;;;4945628;29;20416;-76
2023/08/25 12:49:22;;;;;;;6.33;4.27;;;23.20;97.40;;;;;;4945050;29;20483;-77
2023/08/25 12:51:48;;;;;;;3.80;3.40;;;23.20;97.70;;;;;;4912271;29;20427;-77
2023/08/25 12:54:16;;;;;;;3.97;3.67;;;23.20;97.30;;;;;;4946146;29;20982;-76
2023/08/25 12:56:47;;;;;;;4.23;3.50;;;23.20;97.40;;;;;;4929406;29;20251;-76
2023/08/25 12:59:13;;;;;;;3.90;3.60;;;23.20;97.40;;;;;;4944231;29;20438;-76